首页
METAR-TAF:

METAR-TAF

机场 :

沙加緬度, 加利福尼亚州, 美国

纬度: 38-40-04N, 经度: 121-24-02W, 海拔: 23米

当前天气观测

该预报发布于29分钟前的01:35 UTC
风速7节,风向西北
温度 27°C
湿度 16%
气压 1012 hPa
能見度: 16.1公里
天空无云

METAR: KMCC 210135Z AUTO 32007KT 10SM CLR 27/M01 A2987 RMK AO2

时间: 19:04 (02:04 UTC)

预报

该预报发布于2小时和44分钟前的23:20 UTC
预报有效从21日的 00点(UTC)到 21日的 24点(UTC)
风速11节,风向西北,有时为18节阵风
能見度: 10公里
天空无云
从 21日的 0300点(UTC)
风速5节,风向西北
能見度: 10公里
天空无云
从 21日的 1200点(UTC)
风速10节,风向北转西北
能見度: 10公里
天空无云
从 21日的 1700点(UTC)
风速11节,风向北转西北,有时为20节阵风
能見度: 10公里
天空无云

TAF: KMCC 202320Z 2100/2124 31011G18KT P6SM SKC FM210300 32005KT P6SM SKC FM211200 33010KT P6SM SKC FM211700 34011G20KT P6SM SKC

超过4000个机场的气象观测和天气预报(METAR&TAF报告)。

可查询的气象台以黄色和红色小点在地图上表示。

将鼠标移到小点上方,可查看气象台名称。

然后点击查看天气观测和预报。

如需切换地图:点击带黑十字的绿色按钮放大地图;点击带横线的绿色按钮缩小地图;或者点击绿色箭头查看邻近地区的地图。


METAR-TAF: